Time;durP1;ratioP1;P1;durP2;ratioP2;P2;SDS_P1;SDS_P2;PMS_P1;PMS_P2;Temp;Humidity;BMP_temperature;BMP_pressure;BME280_temperature;BME280_humidity;BME280_pressure;Samples;Min_cycle;Max_cycle;Signal;HPM_P1;HPM_P2
2024/01/05 00:00:51;;;;;;;15.95;5.13;;;4.30;99.90;;;;;;4887772;29;20052;-88
2024/01/05 00:03:17;;;;;;;13.15;5.57;;;4.30;99.90;;;;;;4858989;29;20073;-88
2024/01/05 00:05:43;;;;;;;11.88;4.88;;;4.20;99.90;;;;;;4852095;29;20050;-88
2024/01/05 00:08:11;;;;;;;10.65;5.18;;;4.20;99.90;;;;;;4844354;29;20116;-88
2024/01/05 00:10:37;;;;;;;12.57;5.13;;;4.20;99.90;;;;;;4851130;29;20042;-88
2024/01/05 00:13:03;;;;;;;13.65;5.78;;;4.30;99.90;;;;;;4850542;29;20054;-88
2024/01/05 00:15:28;;;;;;;16.17;5.45;;;4.20;99.90;;;;;;4859145;29;20041;-88
2024/01/05 00:17:54;;;;;;;14.63;5.40;;;4.20;99.90;;;;;;4857205;29;20040;-88
2024/01/05 00:20:20;;;;;;;13.55;5.18;;;4.20;99.90;;;;;;4847547;29;20057;-88
2024/01/05 00:22:46;;;;;;;13.70;4.90;;;4.10;99.90;;;;;;4854980;29;20045;-87
2024/01/05 00:25:12;;;;;;;12.32;5.20;;;4.20;99.90;;;;;;4841595;29;20046;-88
2024/01/05 00:27:38;;;;;;;12.38;5.32;;;4.10;99.90;;;;;;4861156;29;20117;-88
2024/01/05 00:30:04;;;;;;;14.20;5.43;;;4.10;99.90;;;;;;4855880;29;20069;-88
2024/01/05 00:32:30;;;;;;;15.43;5.28;;;4.20;99.90;;;;;;4840207;29;20109;-88
2024/01/05 00:34:56;;;;;;;12.50;5.28;;;4.10;99.90;;;;;;4852267;29;20546;-88
2024/01/05 00:37:21;;;;;;;12.63;5.47;;;4.20;99.90;;;;;;4847540;29;20052;-88
2024/01/05 00:39:47;;;;;;;13.05;5.15;;;4.10;99.90;;;;;;4839742;29;20084;-88
2024/01/05 00:42:13;;;;;;;12.57;5.43;;;4.20;99.90;;;;;;4860553;29;20050;-88
2024/01/05 00:44:40;;;;;;;18.90;5.57;;;4.10;99.90;;;;;;4852187;29;20061;-88
2024/01/05 00:47:06;;;;;;;13.68;6.20;;;4.10;99.90;;;;;;4851269;29;20057;-88
2024/01/05 00:49:32;;;;;;;16.98;5.85;;;4.10;99.90;;;;;;4858689;29;20415;-88
2024/01/05 00:51:58;;;;;;;11.48;4.93;;;4.00;99.90;;;;;;4851037;29;20494;-87
2024/01/05 00:54:25;;;;;;;13.80;5.75;;;4.10;99.90;;;;;;4892375;29;20069;-88
2024/01/05 00:56:51;;;;;;;13.98;5.43;;;4.00;99.90;;;;;;4850440;29;20077;-88
2024/01/05 00:59:20;;;;;;;13.43;5.07;;;4.00;99.90;;;;;;4862607;29;20141;-88
2024/01/05 01:01:46;;;;;;;14.90;5.90;;;4.10;99.90;;;;;;4843035;29;20050;-88
2024/01/05 01:04:12;;;;;;;15.93;5.25;;;4.10;99.90;;;;;;4856076;29;20037;-88
2024/01/05 01:06:37;;;;;;;16.35;5.97;;;4.10;99.90;;;;;;4866707;29;20045;-84
2024/01/05 01:09:03;;;;;;;13.23;4.93;;;4.20;99.90;;;;;;4837004;29;20058;-88
2024/01/05 01:11:29;;;;;;;14.73;5.22;;;4.00;99.90;;;;;;4850571;29;20046;-88
2024/01/05 01:13:54;;;;;;;15.73;5.82;;;4.00;99.90;;;;;;4856358;29;20045;-88
2024/01/05 01:16:20;;;;;;;12.82;5.10;;;4.10;99.90;;;;;;4865418;29;20068;-88
2024/01/05 01:18:45;;;;;;;11.43;4.88;;;4.00;99.90;;;;;;4840690;29;20050;-88
2024/01/05 01:21:12;;;;;;;9.75;4.28;;;4.00;99.90;;;;;;4855888;29;20041;-88
2024/01/05 01:23:37;;;;;;;14.00;4.63;;;4.00;99.90;;;;;;4869943;29;20053;-89
2024/01/05 01:26:03;;;;;;;11.48;4.60;;;3.90;99.90;;;;;;4891540;29;20055;-88
2024/01/05 01:28:30;;;;;;;10.23;4.93;;;4.00;99.90;;;;;;4847899;29;20041;-88
2024/01/05 01:30:56;;;;;;;19.90;12.18;;;4.00;99.90;;;;;;4851809;29;20041;-88
2024/01/05 01:33:22;;;;;;;20.08;12.75;;;4.00;99.90;;;;;;4846572;29;20048;-88
2024/01/05 01:35:48;;;;;;;14.73;5.95;;;4.10;99.90;;;;;;4839777;29;20061;-89
2024/01/05 01:38:13;;;;;;;13.27;5.20;;;4.10;99.90;;;;;;4853095;29;20085;-88
2024/01/05 01:40:47;;;;;;;15.32;5.75;;;4.00;99.90;;;;;;4854459;29;20699;-88
2024/01/05 01:43:22;;;;;;;14.15;5.43;;;4.00;99.90;;;;;;4871794;29;20061;-88
2024/01/05 01:45:48;;;;;;;10.20;4.90;;;4.00;99.90;;;;;;4863559;29;20052;-88
2024/01/05 01:48:18;;;;;;;10.07;4.78;;;4.10;99.90;;;;;;4862581;29;20106;-88
2024/01/05 01:50:45;;;;;;;11.02;5.15;;;4.10;99.90;;;;;;4859026;29;20056;-88
2024/01/05 01:53:13;;;;;;;13.32;4.97;;;4.10;99.90;;;;;;4848833;29;20050;-89
2024/01/05 01:55:40;;;;;;;10.82;5.00;;;4.10;99.90;;;;;;4847586;29;20046;-88
2024/01/05 01:58:05;;;;;;;9.27;4.60;;;4.10;99.90;;;;;;4868287;29;20057;-89
2024/01/05 02:00:32;;;;;;;9.63;4.55;;;4.00;99.90;;;;;;4846535;29;20466;-88
2024/01/05 02:02:59;;;;;;;12.35;5.40;;;4.00;99.90;;;;;;4848845;29;20734;-88
2024/01/05 02:05:28;;;;;;;14.20;5.65;;;4.00;99.90;;;;;;4843673;29;20120;-88
2024/01/05 02:07:56;;;;;;;12.32;5.60;;;4.00;99.90;;;;;;4841866;29;20133;-88
2024/01/05 02:10:22;;;;;;;11.77;5.65;;;4.00;99.90;;;;;;4861940;29;20084;-89
2024/01/05 02:12:47;;;;;;;17.73;5.63;;;4.00;99.90;;;;;;4839451;29;20092;-89
2024/01/05 02:15:13;;;;;;;10.65;5.28;;;3.90;99.90;;;;;;4866885;29;20054;-90
2024/01/05 02:17:39;;;;;;;12.43;4.65;;;4.00;99.90;;;;;;4854595;29;20056;-89
2024/01/05 02:20:05;;;;;;;13.40;6.05;;;3.90;99.90;;;;;;4837960;29;20045;-89
2024/01/05 02:22:34;;;;;;;14.87;6.00;;;4.00;99.90;;;;;;4855512;29;20487;-88
2024/01/05 02:25:01;;;;;;;13.25;5.28;;;4.00;99.90;;;;;;4848378;29;20728;-89
2024/01/05 02:27:27;;;;;;;10.07;4.93;;;4.00;99.90;;;;;;4855989;29;20065;-89
2024/01/05 02:29:53;;;;;;;13.77;5.88;;;3.90;99.90;;;;;;4853601;29;20180;-88
2024/01/05 02:32:18;;;;;;;13.30;5.85;;;4.00;99.90;;;;;;4853322;29;20459;-89
2024/01/05 02:34:44;;;;;;;12.85;5.35;;;3.90;99.90;;;;;;4859769;29;20287;-88
2024/01/05 02:37:10;;;;;;;14.38;5.63;;;3.90;99.90;;;;;;4850249;29;20045;-89
2024/01/05 02:39:36;;;;;;;13.32;6.13;;;3.90;99.90;;;;;;4858383;29;20478;-89
2024/01/05 02:42:01;;;;;;;13.02;5.93;;;4.00;99.90;;;;;;4853611;29;20499;-88
2024/01/05 02:44:27;;;;;;;14.27;6.25;;;4.00;99.90;;;;;;4853357;29;20648;-89
2024/01/05 02:46:53;;;;;;;13.38;6.50;;;4.00;99.90;;;;;;4852545;29;20057;-88
2024/01/05 02:49:18;;;;;;;13.45;6.80;;;4.00;99.90;;;;;;4863105;29;20048;-89
2024/01/05 02:51:44;;;;;;;14.07;6.32;;;4.00;99.90;;;;;;4854381;29;20064;-89
2024/01/05 02:54:10;;;;;;;14.35;6.20;;;4.00;99.90;;;;;;4843625;29;20049;-88
2024/01/05 02:56:35;;;;;;;14.05;6.70;;;4.00;99.90;;;;;;4845660;29;20455;-89
2024/01/05 02:59:03;;;;;;;12.85;6.60;;;4.10;99.90;;;;;;4845397;29;20045;-89
2024/01/05 03:01:29;;;;;;;11.82;5.85;;;4.00;99.90;;;;;;4885860;29;20057;-89
2024/01/05 03:03:55;;;;;;;12.82;5.82;;;4.10;99.90;;;;;;4849745;29;20053;-89
2024/01/05 03:06:21;;;;;;;12.90;5.70;;;4.10;99.90;;;;;;4872993;29;20080;-89
2024/01/05 03:08:46;;;;;;;13.55;6.45;;;4.10;99.90;;;;;;4881327;29;20065;-89
2024/01/05 03:11:12;;;;;;;13.88;5.88;;;4.10;99.90;;;;;;4856625;29;20098;-89
2024/01/05 03:13:38;;;;;;;12.10;5.82;;;4.10;99.90;;;;;;4845555;29;20189;-89
2024/01/05 03:16:05;;;;;;;10.93;5.47;;;4.10;99.90;;;;;;4844360;29;20050;-89
2024/01/05 03:18:31;;;;;;;9.30;5.40;;;4.10;99.90;;;;;;4865322;29;20054;-89
2024/01/05 03:20:56;;;;;;;11.00;5.88;;;4.10;99.90;;;;;;4848540;29;20052;-89
2024/01/05 03:23:22;;;;;;;12.38;5.82;;;4.10;99.90;;;;;;4886104;29;20372;-89
2024/01/05 03:25:50;;;;;;;13.20;6.03;;;4.10;99.90;;;;;;4849878;29;20109;-89
2024/01/05 03:28:16;;;;;;;11.40;5.75;;;4.20;99.90;;;;;;4853675;29;20073;-89
2024/01/05 03:30:42;;;;;;;11.18;5.63;;;4.20;99.90;;;;;;4865243;29;20127;-89
2024/01/05 03:33:09;;;;;;;9.52;5.28;;;4.10;99.90;;;;;;4875558;29;20613;-90
2024/01/05 03:35:36;;;;;;;9.85;6.05;;;4.10;99.90;;;;;;4878918;29;20054;-89
2024/01/05 03:38:02;;;;;;;12.77;6.45;;;4.10;99.90;;;;;;4848034;29;20066;-89
2024/01/05 03:40:27;;;;;;;9.48;5.15;;;4.10;99.90;;;;;;4859305;29;20052;-88
2024/01/05 03:42:53;;;;;;;10.38;5.38;;;4.10;99.90;;;;;;4860140;29;20053;-89
2024/01/05 03:45:19;;;;;;;11.73;6.03;;;4.10;99.90;;;;;;4869281;29;20176;-90
2024/01/05 03:47:45;;;;;;;13.18;6.18;;;4.10;99.90;;;;;;4852980;29;20136;-90
2024/01/05 03:50:10;;;;;;;12.80;5.95;;;4.10;99.90;;;;;;4855297;29;20083;-90
2024/01/05 03:52:36;;;;;;;12.90;6.38;;;4.20;99.90;;;;;;4865350;29;20049;-90
2024/01/05 03:55:02;;;;;;;9.95;5.43;;;4.20;99.90;;;;;;4855131;29;20046;-89
2024/01/05 03:57:28;;;;;;;10.30;5.90;;;4.20;99.90;;;;;;4888303;29;20136;-89
2024/01/05 03:59:54;;;;;;;12.05;5.90;;;4.20;99.90;;;;;;4871502;29;20133;-88
2024/01/05 04:02:19;;;;;;;10.13;5.95;;;4.20;99.90;;;;;;4866330;29;20128;-89
2024/01/05 04:04:45;;;;;;;12.85;6.07;;;4.20;99.90;;;;;;4831735;29;20120;-89
2024/01/05 04:07:11;;;;;;;11.98;6.32;;;4.20;99.90;;;;;;4866555;29;20081;-89
2024/01/05 04:09:38;;;;;;;11.00;6.60;;;4.30;99.90;;;;;;4851811;29;20501;-89
2024/01/05 04:12:04;;;;;;;10.50;5.43;;;4.20;99.90;;;;;;4848606;29;20149;-90
2024/01/05 04:14:30;;;;;;;10.20;5.93;;;4.20;99.90;;;;;;4860135;29;20041;-89
2024/01/05 04:16:55;;;;;;;14.77;7.22;;;4.20;99.90;;;;;;4843290;29;20056;-89
2024/01/05 04:19:21;;;;;;;10.52;5.68;;;4.30;99.90;;;;;;4889771;29;20053;-89
2024/01/05 04:21:47;;;;;;;11.10;6.18;;;4.20;99.90;;;;;;4854202;29;20053;-89
2024/01/05 04:24:13;;;;;;;12.20;6.03;;;4.20;99.90;;;;;;4857899;29;20053;-89
2024/01/05 04:26:39;;;;;;;14.68;6.53;;;4.30;99.90;;;;;;4854998;29;20988;-89
2024/01/05 04:29:05;;;;;;;11.02;6.55;;;4.30;99.90;;;;;;4848912;29;20056;-89
2024/01/05 04:31:30;;;;;;;12.70;6.28;;;4.30;99.90;;;;;;4853293;29;20610;-88
2024/01/05 04:33:56;;;;;;;15.10;7.05;;;4.30;99.90;;;;;;4850136;29;20050;-90
2024/01/05 04:36:22;;;;;;;11.00;5.95;;;4.30;99.90;;;;;;4898531;29;20036;-89
2024/01/05 04:38:47;;;;;;;13.18;6.72;;;4.30;99.90;;;;;;4843551;29;20077;-88
2024/01/05 04:41:16;;;;;;;13.80;6.88;;;4.30;99.90;;;;;;4865490;29;20053;-89
2024/01/05 04:43:44;;;;;;;10.45;5.85;;;4.30;99.90;;;;;;4846007;29;20522;-89
2024/01/05 04:46:10;;;;;;;12.63;6.85;;;4.30;99.90;;;;;;4854081;29;20129;-89
2024/01/05 04:48:36;;;;;;;12.32;6.55;;;4.30;99.90;;;;;;4852038;29;20045;-89
2024/01/05 04:51:02;;;;;;;13.05;6.65;;;4.30;99.90;;;;;;4842870;29;21289;-89
2024/01/05 04:53:27;;;;;;;10.65;6.43;;;4.30;99.90;;;;;;4859764;29;20044;-91
2024/01/05 04:55:56;;;;;;;12.00;6.40;;;4.30;99.90;;;;;;4858069;29;20371;-88
2024/01/05 04:58:23;;;;;;;11.07;5.85;;;4.40;99.90;;;;;;4857632;29;20051;-90
2024/01/05 05:00:49;;;;;;;13.45;7.38;;;4.30;99.90;;;;;;4869594;29;20056;-85
2024/01/05 05:03:15;;;;;;;11.50;6.80;;;4.30;99.90;;;;;;4864601;29;20060;-89
2024/01/05 05:05:40;;;;;;;10.23;5.47;;;4.30;99.90;;;;;;4855977;29;20557;-89
2024/01/05 05:08:13;;;;;;;11.63;6.53;;;4.40;99.90;;;;;;4850239;29;20618;-89
2024/01/05 05:10:39;;;;;;;13.63;6.25;;;4.30;99.90;;;;;;4866853;29;20053;-89
2024/01/05 05:13:05;;;;;;;11.15;6.40;;;4.30;99.90;;;;;;4847162;29;20477;-89
2024/01/05 05:15:30;;;;;;;11.65;6.90;;;4.30;99.90;;;;;;4863181;29;20143;-89
2024/01/05 05:17:56;;;;;;;10.82;5.68;;;4.40;99.90;;;;;;4889940;29;20054;-88
2024/01/05 05:20:22;;;;;;;10.00;4.88;;;4.40;99.90;;;;;;4859286;29;20274;-89
2024/01/05 05:22:48;;;;;;;9.65;5.45;;;4.40;99.90;;;;;;4891134;29;20433;-89
2024/01/05 05:25:14;;;;;;;11.77;6.57;;;4.40;99.90;;;;;;4875233;29;20045;-89
2024/01/05 05:27:39;;;;;;;13.95;7.40;;;4.40;99.90;;;;;;4889093;29;20113;-89
2024/01/05 05:30:06;;;;;;;12.85;7.00;;;4.40;99.90;;;;;;4848832;29;20045;-88
2024/01/05 05:32:32;;;;;;;13.80;7.27;;;4.40;99.90;;;;;;4872340;29;20378;-89
2024/01/05 05:34:58;;;;;;;14.57;7.18;;;4.50;99.90;;;;;;4858259;29;20373;-90
2024/01/05 05:37:24;;;;;;;12.73;6.90;;;4.40;99.90;;;;;;4871399;29;20057;-89
2024/01/05 05:39:50;;;;;;;14.73;7.72;;;4.40;99.90;;;;;;4859906;29;20052;-89
2024/01/05 05:42:15;;;;;;;12.38;7.80;;;4.50;99.90;;;;;;4848128;29;20161;-88
2024/01/05 05:44:41;;;;;;;13.65;7.97;;;4.40;99.90;;;;;;4849939;29;20429;-88
2024/01/05 05:47:06;;;;;;;13.60;7.05;;;4.50;99.90;;;;;;4857144;29;20052;-89
2024/01/05 05:49:32;;;;;;;15.50;8.63;;;4.40;99.90;;;;;;4858430;29;20179;-89
2024/01/05 05:51:58;;;;;;;14.13;7.63;;;4.50;99.90;;;;;;4862636;29;20056;-92
2024/01/05 05:54:23;;;;;;;15.57;8.98;;;4.50;99.90;;;;;;4855753;29;20050;-90
2024/01/05 05:56:49;;;;;;;15.20;7.22;;;4.50;99.90;;;;;;4837765;29;20038;-90
2024/01/05 05:59:15;;;;;;;15.68;8.25;;;4.50;99.90;;;;;;4851620;29;20081;-89
2024/01/05 06:01:40;;;;;;;20.45;8.93;;;4.50;99.90;;;;;;4854329;29;20159;-89
2024/01/05 06:04:07;;;;;;;15.40;8.38;;;4.50;99.90;;;;;;4863590;29;20053;-89
2024/01/05 06:06:33;;;;;;;18.25;9.23;;;4.40;99.90;;;;;;4853995;29;20046;-89
2024/01/05 06:08:59;;;;;;;14.27;7.85;;;4.60;99.90;;;;;;4847794;29;20041;-89
2024/01/05 06:11:28;;;;;;;13.98;8.18;;;4.50;99.90;;;;;;4861032;29;20089;-89
2024/01/05 06:13:54;;;;;;;17.27;8.65;;;4.50;99.90;;;;;;4877537;29;20399;-89
2024/01/05 06:16:20;;;;;;;17.02;8.95;;;4.60;99.90;;;;;;4877103;29;20214;-90
2024/01/05 06:18:46;;;;;;;18.08;9.75;;;4.60;99.90;;;;;;4879211;29;20503;-89
2024/01/05 06:21:11;;;;;;;15.52;8.75;;;4.60;99.90;;;;;;4856845;29;20072;-89
2024/01/05 06:23:37;;;;;;;31.45;24.60;;;4.60;99.90;;;;;;4883237;29;20038;-90
2024/01/05 06:26:03;;;;;;;16.80;8.90;;;4.70;99.90;;;;;;4841390;29;20069;-89
2024/01/05 06:28:29;;;;;;;17.85;8.65;;;4.70;99.90;;;;;;4838360;29;20048;-89
2024/01/05 06:30:54;;;;;;;16.52;8.75;;;4.70;99.90;;;;;;4834622;29;20136;-90
2024/01/05 06:33:20;;;;;;;17.70;9.02;;;4.70;99.90;;;;;;4887773;29;20076;-89
2024/01/05 06:35:46;;;;;;;36.22;26.38;;;4.70;99.90;;;;;;4853614;29;20132;-90
2024/01/05 06:38:11;;;;;;;33.97;25.55;;;4.70;99.90;;;;;;4857158;29;20057;-89
2024/01/05 06:40:37;;;;;;;19.73;10.32;;;4.80;99.90;;;;;;4856880;29;20101;-89
2024/01/05 06:43:03;;;;;;;30.08;25.02;;;4.80;99.90;;;;;;4863021;29;20045;-90
2024/01/05 06:45:28;;;;;;;38.60;27.65;;;4.80;99.90;;;;;;4847243;29;20044;-89
2024/01/05 06:47:54;;;;;;;38.30;26.65;;;4.90;99.90;;;;;;4840607;29;20046;-90
2024/01/05 06:50:20;;;;;;;20.95;10.55;;;4.90;99.90;;;;;;4852265;29;20494;-90
2024/01/05 06:52:45;;;;;;;38.10;27.98;;;4.90;99.90;;;;;;4850689;29;20103;-89
2024/01/05 06:55:11;;;;;;;38.83;28.25;;;4.90;99.90;;;;;;4862805;29;20040;-89
2024/01/05 06:57:37;;;;;;;38.40;28.10;;;5.00;99.90;;;;;;4856718;29;20054;-89
2024/01/05 07:00:09;;;;;;;38.55;28.02;;;5.00;99.90;;;;;;4849314;29;20042;-81
2024/01/05 07:02:35;;;;;;;20.08;10.93;;;5.00;99.90;;;;;;4854426;29;20582;-85
2024/01/05 07:05:01;;;;;;;34.70;27.15;;;5.00;99.90;;;;;;4844412;29;20135;-84
2024/01/05 07:07:26;;;;;;;34.13;27.30;;;5.00;99.90;;;;;;4844621;29;20513;-86
2024/01/05 07:09:52;;;;;;;40.17;28.98;;;5.00;99.90;;;;;;4852491;29;20048;-86
2024/01/05 07:12:18;;;;;;;40.35;28.90;;;5.00;99.90;;;;;;4857936;29;20165;-85
2024/01/05 07:14:44;;;;;;;41.65;28.98;;;5.10;99.90;;;;;;4862772;29;20092;-86
2024/01/05 07:17:10;;;;;;;40.72;30.20;;;5.10;99.90;;;;;;4861858;29;20041;-85
2024/01/05 07:19:38;;;;;;;20.75;10.77;;;5.10;99.90;;;;;;4866385;29;20041;-80
2024/01/05 07:22:06;;;;;;;21.92;10.13;;;5.10;99.90;;;;;;4858238;29;20634;-86
2024/01/05 07:24:37;;;;;;;22.58;11.02;;;5.00;99.90;;;;;;4861216;29;20054;-86
2024/01/05 07:27:03;;;;;;;22.00;8.82;;;5.00;99.90;;;;;;4859203;29;20117;-86
2024/01/05 07:29:29;;;;;;;18.93;9.80;;;5.00;99.90;;;;;;4859970;29;20053;-85
2024/01/05 07:31:55;;;;;;;19.08;10.02;;;5.00;99.90;;;;;;4842056;29;20736;-86
2024/01/05 07:34:21;;;;;;;18.52;9.00;;;5.00;99.90;;;;;;4857955;29;20596;-85
2024/01/05 07:36:50;;;;;;;19.00;9.63;;;5.00;99.90;;;;;;4885651;29;20071;-86
2024/01/05 07:39:16;;;;;;;24.52;11.57;;;5.00;99.90;;;;;;4861872;29;20405;-86
2024/01/05 07:41:42;;;;;;;20.70;10.95;;;5.00;99.90;;;;;;4854482;29;20048;-83
2024/01/05 07:44:08;;;;;;;22.58;10.25;;;5.00;99.90;;;;;;4846108;29;20100;-85
2024/01/05 07:46:40;;;;;;;21.00;10.75;;;5.00;99.90;;;;;;4846658;29;20046;-87
2024/01/05 07:49:06;;;;;;;24.23;10.93;;;5.00;99.90;;;;;;4877035;29;20156;-86
2024/01/05 07:51:32;;;;;;;18.23;9.90;;;5.10;99.90;;;;;;4848376;29;20041;-85
2024/01/05 07:53:58;;;;;;;22.95;11.40;;;5.10;99.90;;;;;;4850326;29;20128;-86
2024/01/05 07:56:24;;;;;;;18.67;9.65;;;5.10;99.90;;;;;;4856491;29;20037;-85
2024/01/05 07:58:50;;;;;;;19.67;10.18;;;5.10;99.90;;;;;;4851604;29;20075;-85
2024/01/05 08:01:20;;;;;;;18.85;10.23;;;5.10;99.90;;;;;;4852238;29;20613;-85
2024/01/05 08:03:47;;;;;;;22.40;9.85;;;5.20;99.90;;;;;;4861161;29;20549;-86
2024/01/05 08:06:20;;;;;;;25.13;11.32;;;5.20;99.90;;;;;;4853511;29;20060;-87
2024/01/05 08:08:47;;;;;;;24.45;11.80;;;5.20;99.90;;;;;;4864525;29;20046;-85
2024/01/05 08:11:13;;;;;;;;;;;5.20;99.90;;;;;;4861986;29;20076;-86
2024/01/05 08:13:40;;;;;;;19.00;10.73;;;5.20;99.90;;;;;;4860843;29;19974;-84
2024/01/05 08:16:06;;;;;;;20.55;9.48;;;5.30;99.90;;;;;;4881480;29;20061;-85
2024/01/05 08:18:32;;;;;;;18.58;9.60;;;5.30;99.90;;;;;;4846638;29;20105;-85
2024/01/05 08:20:58;;;;;;;18.85;9.95;;;5.30;99.90;;;;;;4853484;29;20588;-85
2024/01/05 08:23:27;;;;;;;21.55;9.55;;;5.30;99.90;;;;;;4859322;29;20580;-85
2024/01/05 08:25:53;;;;;;;20.98;9.43;;;5.40;99.90;;;;;;4859018;29;20086;-86
2024/01/05 08:28:18;;;;;;;21.08;10.27;;;5.40;99.90;;;;;;4849351;29;20061;-85
2024/01/05 08:30:44;;;;;;;17.98;9.43;;;5.40;99.90;;;;;;4852846;29;20140;-83
2024/01/05 08:33:10;;;;;;;20.92;9.45;;;5.50;99.90;;;;;;4847655;29;20128;-85
2024/01/05 08:35:36;;;;;;;18.55;10.18;;;5.50;99.90;;;;;;4844987;29;20085;-86
2024/01/05 08:38:04;;;;;;;18.90;9.20;;;5.60;99.90;;;;;;4850623;29;20136;-87
2024/01/05 08:40:30;;;;;;;17.70;9.13;;;5.60;99.90;;;;;;4849270;29;20042;-83
2024/01/05 08:42:57;;;;;;;17.65;8.95;;;5.70;99.90;;;;;;4853647;29;20098;-80
2024/01/05 08:45:22;;;;;;;17.33;8.32;;;5.70;99.90;;;;;;4840309;29;20045;-84
2024/01/05 08:47:48;;;;;;;18.15;8.50;;;5.70;99.90;;;;;;4836414;29;20689;-84
2024/01/05 08:50:17;;;;;;;19.70;8.93;;;5.80;99.90;;;;;;4849367;29;20056;-85
2024/01/05 08:52:43;;;;;;;25.70;18.63;;;5.80;99.90;;;;;;4853478;29;20501;-84
2024/01/05 08:55:09;;;;;;;19.48;7.93;;;5.90;99.90;;;;;;4855255;29;20038;-83
2024/01/05 08:57:35;;;;;;;14.68;7.20;;;6.00;99.90;;;;;;4842602;29;20102;-84
2024/01/05 09:00:01;;;;;;;24.30;17.63;;;6.00;99.90;;;;;;4855097;29;20406;-81
2024/01/05 09:02:27;;;;;;;14.70;7.75;;;6.10;99.90;;;;;;4859206;29;20048;-81
2024/01/05 09:04:52;;;;;;;26.42;17.52;;;6.10;99.90;;;;;;4835360;29;20073;-81
2024/01/05 09:07:19;;;;;;;25.80;18.08;;;6.20;99.90;;;;;;4844823;29;20084;-84
2024/01/05 09:09:45;;;;;;;26.55;18.10;;;6.30;99.90;;;;;;4850299;29;20641;-83
2024/01/05 09:12:11;;;;;;;24.50;17.17;;;6.30;99.90;;;;;;4843291;29;20046;-84
2024/01/05 09:14:37;;;;;;;22.63;16.77;;;6.40;99.90;;;;;;4848468;29;20118;-80
2024/01/05 09:17:06;;;;;;;24.45;16.77;;;6.40;99.90;;;;;;4843721;29;20045;-79
2024/01/05 09:19:33;;;;;;;23.95;17.13;;;6.40;99.90;;;;;;4839076;29;20050;-81
2024/01/05 09:21:59;;;;;;;24.15;17.33;;;6.50;99.90;;;;;;4846328;29;20496;-80
2024/01/05 09:24:26;;;;;;;22.13;16.60;;;6.50;99.90;;;;;;4856338;29;20053;-80
2024/01/05 09:26:52;;;;;;;12.80;6.50;;;6.50;99.90;;;;;;4848801;29;20057;-80
2024/01/05 09:29:17;;;;;;;12.18;6.60;;;6.50;99.90;;;;;;4844285;29;20049;-83
2024/01/05 09:31:46;;;;;;;23.05;16.50;;;6.40;99.90;;;;;;4852984;29;20502;-87
2024/01/05 09:34:13;;;;;;;12.40;6.65;;;6.50;99.90;;;;;;4858925;29;20045;-87
2024/01/05 09:36:41;;;;;;;16.83;6.85;;;6.40;99.90;;;;;;4870772;29;20080;-86
2024/01/05 09:39:09;;;;;;;17.52;7.13;;;6.40;99.90;;;;;;4856531;29;20112;-82
2024/01/05 09:41:34;;;;;;;13.73;7.20;;;6.40;99.90;;;;;;4851648;29;20061;-85
2024/01/05 09:44:02;;;;;;;14.27;6.20;;;6.40;99.90;;;;;;4855573;29;20044;-81
2024/01/05 09:46:28;;;;;;;21.40;15.88;;;6.40;99.90;;;;;;4874001;29;20563;-83
2024/01/05 09:48:57;;;;;;;15.95;7.25;;;6.40;99.90;;;;;;4870305;29;20056;-83
2024/01/05 09:51:28;;;;;;;13.27;5.25;;;6.40;99.90;;;;;;4840807;29;20474;-82
2024/01/05 09:53:54;;;;;;;9.18;3.15;;;6.40;99.90;;;;;;4849000;29;20517;-82
2024/01/05 09:56:21;;;;;;;6.05;3.75;;;6.50;99.90;;;;;;4863149;29;20044;-81
2024/01/05 09:58:48;;;;;;;10.10;4.68;;;6.60;99.90;;;;;;4844103;29;20045;-81
2024/01/05 10:01:35;;;;;;;7.00;2.50;;;6.60;99.90;;;;;;4867559;29;20426;-81
2024/01/05 10:04:02;;;;;;;6.45;2.03;;;6.70;99.90;;;;;;4869699;29;20112;-85
2024/01/05 10:06:30;;;;;;;6.60;1.75;;;6.70;99.90;;;;;;4856079;29;20612;-85
2024/01/05 10:08:57;;;;;;;5.30;1.83;;;6.80;99.90;;;;;;4857414;29;20049;-85
2024/01/05 10:11:34;;;;;;;5.88;2.67;;;6.90;99.90;;;;;;4877955;29;20048;-83
2024/01/05 10:14:05;;;;;;;4.05;1.67;;;6.90;99.90;;;;;;4873328;29;20053;-84
2024/01/05 10:16:36;;;;;;;3.60;1.73;;;7.00;99.90;;;;;;4879277;29;20044;-79
2024/01/05 10:19:21;;;;;;;5.65;1.70;;;7.00;99.90;;;;;;4858450;29;20145;-78
2024/01/05 10:21:48;;;;;;;3.25;1.60;;;7.00;99.90;;;;;;4865314;29;20060;-77
2024/01/05 10:24:21;;;;;;;4.20;2.05;;;7.10;99.90;;;;;;4864666;29;20052;-76
2024/01/05 10:27:01;;;;;;;10.27;4.53;;;7.10;99.90;;;;;;4842356;29;20053;-77
2024/01/05 10:29:27;;;;;;;4.80;1.52;;;7.20;99.90;;;;;;4839204;29;20065;-77
2024/01/05 10:31:53;;;;;;;8.82;4.05;;;7.20;99.90;;;;;;4873180;29;20051;-77
2024/01/05 10:34:19;;;;;;;7.60;1.75;;;7.30;99.90;;;;;;4864018;29;20593;-75
2024/01/05 10:36:45;;;;;;;6.47;1.88;;;7.30;99.90;;;;;;4864463;29;20045;-78
2024/01/05 10:39:10;;;;;;;4.32;1.50;;;7.30;99.90;;;;;;4869471;29;20049;-76
2024/01/05 10:41:37;;;;;;;6.47;3.35;;;7.40;99.90;;;;;;4855763;29;20056;-76
2024/01/05 10:44:03;;;;;;;8.35;2.75;;;7.40;99.90;;;;;;4858682;29;20057;-80
2024/01/05 10:46:31;;;;;;;7.23;2.47;;;7.40;99.90;;;;;;4870546;29;20128;-77
2024/01/05 10:48:57;;;;;;;10.05;3.58;;;7.50;99.90;;;;;;4867964;29;20045;-78
2024/01/05 10:51:23;;;;;;;9.35;2.58;;;7.50;99.90;;;;;;4867242;29;20052;-75
2024/01/05 10:53:49;;;;;;;7.75;2.53;;;7.50;99.90;;;;;;4873535;29;20154;-76
2024/01/05 10:56:18;;;;;;;12.32;4.97;;;7.50;99.90;;;;;;4869304;29;20498;-78
2024/01/05 10:58:47;;;;;;;10.75;5.95;;;7.50;99.90;;;;;;4878305;29;20056;-78
2024/01/05 11:01:16;;;;;;;9.45;3.53;;;7.50;99.90;;;;;;4862790;29;20581;-80
2024/01/05 11:03:44;;;;;;;12.57;5.82;;;7.60;99.90;;;;;;4858798;29;20051;-81
2024/01/05 11:06:10;;;;;;;9.20;3.53;;;7.50;99.90;;;;;;4848240;29;20474;-79
2024/01/05 11:08:50;;;;;;;7.13;2.53;;;7.50;99.90;;;;;;4881690;29;20128;-76
2024/01/05 11:11:42;;;;;;;10.38;3.85;;;7.50;99.90;;;;;;4852972;29;20053;-78
2024/01/05 11:14:40;;;;;;;7.65;2.78;;;7.60;99.90;;;;;;4884636;29;20048;-78
2024/01/05 11:17:40;;;;;;;4.40;1.30;;;7.60;99.90;;;;;;4869025;29;20051;-80
2024/01/05 11:20:18;;;;;;;1.40;1.00;;;7.50;99.90;;;;;;4872018;29;20051;-76
2024/01/05 11:22:48;;;;;;;7.10;1.50;;;7.60;99.90;;;;;;4875347;29;20056;-78
2024/01/05 11:25:15;;;;;;;4.53;1.33;;;7.50;99.90;;;;;;4861874;29;20100;-78
2024/01/05 11:27:47;;;;;;;2.92;1.33;;;7.50;99.90;;;;;;4876129;29;20129;-78
2024/01/05 11:30:13;;;;;;;3.45;1.42;;;7.60;99.90;;;;;;4868490;29;20097;-76
2024/01/05 11:32:42;;;;;;;1.42;0.73;;;7.60;99.90;;;;;;4851425;29;20435;-77
2024/01/05 11:35:41;;;;;;;0.68;0.50;;;7.60;99.90;;;;;;4847354;29;20668;-76
2024/01/05 11:38:25;;;;;;;1.38;1.00;;;7.40;99.90;;;;;;4843918;29;20064;-77
2024/01/05 11:40:50;;;;;;;2.60;0.95;;;7.50;99.90;;;;;;4853963;29;20486;-79
2024/01/05 11:43:33;;;;;;;3.72;1.30;;;7.40;99.90;;;;;;4842631;29;20181;-79
2024/01/05 11:45:58;;;;;;;1.63;1.00;;;7.40;99.90;;;;;;4861081;29;20136;-78
2024/01/05 11:48:33;;;;;;;0.98;0.75;;;7.50;99.90;;;;;;4858038;29;20157;-80
2024/01/05 11:51:08;;;;;;;2.45;0.80;;;7.40;99.90;;;;;;4863146;29;20058;-77
2024/01/05 11:53:34;;;;;;;2.13;0.77;;;7.50;99.90;;;;;;4874383;29;20045;-77
2024/01/05 11:56:03;;;;;;;1.10;0.82;;;7.50;99.90;;;;;;4850592;29;20786;-77
2024/01/05 11:58:39;;;;;;;2.30;0.80;;;7.50;99.90;;;;;;4849511;29;20062;-75
2024/01/05 12:01:07;;;;;;;2.70;0.88;;;7.50;99.90;;;;;;4860462;29;20092;-75
2024/01/05 12:03:33;;;;;;;2.72;1.15;;;7.40;99.90;;;;;;4880559;29;20072;-76
2024/01/05 12:06:06;;;;;;;2.47;1.27;;;7.60;99.90;;;;;;4848665;29;20401;-77
2024/01/05 12:08:33;;;;;;;2.78;0.95;;;7.60;99.90;;;;;;4872219;29;20052;-79
2024/01/05 12:11:02;;;;;;;1.87;0.93;;;7.60;99.90;;;;;;4842230;29;20066;-78
2024/01/05 12:13:29;;;;;;;2.05;1.25;;;7.60;99.90;;;;;;4884524;29;20290;-79
2024/01/05 12:16:05;;;;;;;1.93;1.00;;;7.60;99.90;;;;;;4864778;29;20057;-80
2024/01/05 12:18:32;;;;;;;1.73;1.05;;;7.50;99.90;;;;;;4867674;29;20038;-81
2024/01/05 12:21:02;;;;;;;2.88;0.95;;;7.60;99.90;;;;;;4849525;29;20058;-81
2024/01/05 12:23:32;;;;;;;2.72;1.17;;;7.50;99.90;;;;;;4868808;29;20041;-78
2024/01/05 12:26:03;;;;;;;3.38;2.17;;;7.40;99.90;;;;;;4846221;29;20102;-76
2024/01/05 12:28:36;;;;;;;5.18;2.58;;;7.50;99.90;;;;;;4875383;29;20498;-76
2024/01/05 12:31:04;;;;;;;3.58;1.83;;;7.50;99.90;;;;;;4861167;29;20446;-75
2024/01/05 12:33:31;;;;;;;3.05;1.60;;;7.50;99.90;;;;;;4871704;29;20108;-77
2024/01/05 12:35:57;;;;;;;;;;;7.40;99.90;;;;;;4856462;29;20826;-76
2024/01/05 12:38:28;;;;;;;2.03;1.30;;;7.30;99.90;;;;;;4861061;29;19966;-76
2024/01/05 12:41:11;;;;;;;2.38;1.50;;;7.30;99.90;;;;;;4851207;29;20042;-79
2024/01/05 12:43:38;;;;;;;1.98;1.50;;;7.30;99.90;;;;;;4865647;29;20540;-79
2024/01/05 12:46:04;;;;;;;3.90;1.33;;;7.30;99.90;;;;;;4861664;29;20495;-78
2024/01/05 12:48:31;;;;;;;3.65;1.63;;;7.20;99.90;;;;;;4847121;29;20056;-81